Observations at @ca for Latest


KACV 051752Z AUTO 25005KT 1 3/4SM BR OVC006 11/10 A2985 RMK AO2 RAB1654E03
 SLP114 P0001 60003 T01060100 10111 20100 53007=
KACV 051804Z AUTO 25005KT 1 1/4SM R32/5500VP6000FT BR BKN004 OVC008 11/10 A2986
 RMK AO2 T01060100=
KACV 051819Z AUTO 25004KT 2 1/2SM BR BKN003 OVC012 11/10 A2986 RMK AO2
 T01060100=
KACV 051827Z AUTO 26004KT 3SM BR BKN003 OVC008 11/11 A2986 RMK AO2 T01060106=
KACV 051836Z AUTO 24003KT 3SM BR SCT005 OVC010 11/11 A2987 RMK AO2 T01060106=
KAPC 051754Z 19021G27KT 10SM CLR 19/12 A2976 RMK AO2 PK WND 19027/1753 SLP067
 T01890117 10189 20117 51003=
KAVX 051751Z AUTO 10SM BKN016 OVC022 16/11 A2989 RMK AO2 SLP110 T01610111 10167
 20144 53005=
KBAB 051758Z AUTO 17019G25KT 9SM FEW190 24/09 A2966 RMK AO2 SLP046 T02410089
 10241 20171 50005 $=
KBFL 051754Z 32012KT 10SM CLR 22/12 A2975 RMK AO2 SLP069 T02170117 10244 20211
 53012=
KBIH 051756Z AUTO 00000KT 10SM CLR 30/03 A2977 RMK AO2 SLP028 T03000033 10300
 20117 58012=
KBLH 051752Z AUTO 19011KT 10SM CLR 37/01 A2963 RMK AO2 SLP023 T03670006 10367
 20261 58003=
KBLU 051752Z AUTO 19014G18KT 10SM CLR 21/M01 A2991 RMK AO2 SLP035 T02061011
 10211 20178 50004=
KBUR 051753Z 19005KT 10SM OVC020 18/12 A2986 RMK AO2 SLP101 60000 T01830122
 10183 20150 50005=
KBYS 051758Z AUTO 13003KT 10SM CLR 32/03 A2970 RMK AO2 SLP024 T03200030 10322
 20220 57008 $=
KCCR 051753Z 18024G30KT 10SM CLR 18/09 A2977 RMK AO2 PK WND 18030/1749 SLP068
 T01830094 10183 20144 53013=
KCEC 051756Z AUTO 17007KT 10SM OVC006 13/10 A2983 RMK AO2 CIG 006V010 SLP102
 T01330100 10133 20122 53006=
KCIC 051847Z 16018KT 10SM SCT200 24/10 A2968 RMK HZ=
KCMA 051755Z 23006KT 10SM SCT022 BKN027 OVC036 21/14 A2985 RMK AO2 SLP115
 T02110139 10217 20189 52002=
KCMA 051802Z 23007KT 10SM FEW022 FEW028 OVC038 22/14 A2984 RMK AO2 T02170139=
KCNO 051753Z 25009KT 10SM FEW011 BKN016 OVC030 19/15 A2988 RMK AO2 RAB21E40
 SLP115 P0000 60000 T01890150 10189 20172 51010=
KCNO 051753Z COR 25009KT 10SM FEW011 BKN016 BKN030 19/15 A2988 RMK AO2 RAB21E40
 SLP115 P0000 60000 T01890150 10189 20172 51010=
KCNO 051801Z 24010KT 10SM FEW011 BKN016 BKN030 20/15 A2988 RMK AO2 T02000150=
KCQT 051752Z AUTO 00000KT 10SM OVC024 19/13 A2986 RMK AO2 SLP109 T01940133
 10206 20183 53011=
KCRQ 051753Z AUTO 24007KT 10SM OVC022 19/14 A2986 RMK AO2 SLP109 60001
 T01940139 10200 20167 51006=
KCRQ 051834Z AUTO 21010KT 10SM FEW018 BKN031 OVC038 19/13 A2987=
KCRQ 051834Z AUTO 21010KT 10SM FEW018 BKN031 OVC038 19/13 A2987 RMK AO2
 T01890133=
KCZZ 051752Z AUTO 24007KT 13/12 A2987 RMK AO1 SLP093 T01330122 10156 20111
 53008=
KDAG 051750Z AUTO 31013KT 10SM CLR 32/06 A2969 RMK AO2 SLP023 T03220061 10322
 20233 56008=
KEDW 051758Z 25010KT 70SM BKN160 BKN300 22/10 A2973 RMK AO2A SLP046 T02150100
 10216 20185 58002=
KEDW 051840Z 23022G27KT 70SM FEW150 BKN160 BKN300 21/11 A2974 RMK AO2A SLP051=
KEED 051756Z AUTO 15011G17KT 10SM CLR 39/M02 A2964 RMK AO2 SLP995 T03891022
 10389 20306 58006=
KEMT 051647Z VRB03KT 9SM SCT016 BKN022 OVC030 18/14 A2987=
KFAT 051753Z 30007KT 10SM FEW080 BKN150 26/11 A2974 RMK AO2 SLP065 T02560111
 10261 20194 51015=
KFOT 051755Z AUTO 32008KT 10SM SCT008 OVC015 12/11 A2985 RMK AO1=
KFOT 051815Z AUTO 29010KT 10SM SCT009 OVC016 12/11 A2986 RMK AO1=
KFOT 051835Z AUTO 31007KT 10SM SCT010 OVC018 13/11 A2987 RMK AO1=
KFUL 051753Z 18004KT 10SM BKN025 OVC032 20/13 A2986 RMK AO2 SLP110 60000
 T02000133 10200 20178 53008=
KHHR 051753Z 11006KT 10SM FEW029 OVC034 20/12 A2986 RMK AO2 SLP111 T02000122
 10200 20183 53006=
KHJO 051753Z AUTO 11007KT 10SM CLR 25/15 A2974 RMK AO2 SLP071 T02500150 10272
 20161 51016=
KHWD 051754Z 27012KT 10SM BKN017 17/10 A2984 RMK AO2 SLP114 T01670100 10178
 20144 53015=
KIPL 051753Z AUTO 29004KT 10SM CLR 33/08 A2960 RMK AO2 SLP022 T03330078 10333
 20256 58005=
KIZA 051755Z AUTO 22004KT 10SM OVC023 19/13 A2985 RMK AO2=
KIZA 051815Z AUTO 22003KT 10SM OVC021 18/13 A2985 RMK AO2=
KIZA 051835Z AUTO 25003KT 10SM OVC023 19/13 A2985 RMK AO2=
KLAX 051753Z 16006KT 8SM FEW019 SCT029 OVC038 21/12 A2986 RMK AO2 SLP109
 T02060122 10206 20178 51009=
KLGB 051753Z 15005KT 10SM FEW023 OVC036 19/13 A2986 RMK AO2 SLP110 T01940128
 10200 20178 51007=
KLGB 051844Z 10SM SCT024 BKN028 OVC040 20/13 A2987 RMK AO2 T02000133=
KLPC 051756Z AUTO 19005KT 10SM 19/13 A2985 RMK AO2 SLP108 T01940133 10194 20167
 53004=
KLPC 051817Z AUTO 14005KT 10SM OVC027 20/13 A2985 RMK AO2=
KLVK 051753Z 27015KT 10SM CLR 21/11 A2979 RMK AO2 SLP083 T02060106 10217 20139
 53004=
KMAE 051753Z AUTO 32011KT 10SM CLR 24/11 A2973 RMK AO2 SLP065 T02440106 10250
 20156 50007=
KMCC 051755Z AUTO 18017KT 10SM CLR 22/10 A2970 RMK AO2=
KMCC 051815Z AUTO 18014G22KT 10SM CLR 22/10 A2970 RMK AO2=
KMCC 051835Z AUTO 17015G21KT 10SM 23/10 A2970 RMK AO2=
KMCE 051753Z AUTO 24009KT 10SM CLR 24/11 A2973 RMK AO2 SLP066 T02440111 10250
 20167 50009=
KMER 051745Z 00000KT 10SM SKC 27/11 A2974=
KMHR 051750Z 20014KT 10SM SKC 22/08 A2970=
KMHS 051756Z AUTO 10SM CLR 24/09 A2971 RMK AO2 SLP045 T02390089 10244 20106
 56007 $=
KMHV 051800Z AUTO 23016G24KT 10SM CLR 22/09 A2977 RMK A01=
KMHV 051820Z AUTO 24017G27KT 10SM CLR 22/09 A2975 RMK A01=
KMMH 051757Z AUTO 12006KT 10SM CLR 21/01 A3001 RMK AO2=
KMMH 051817Z AUTO 10005KT 10SM CLR 21/01 A3001 RMK AO2=
KMMH 051837Z AUTO 11005KT 10SM CLR 21/01 A3000 RMK AO2=
KMOD 051753Z VRB06KT 10SM CLR 25/11 A2973 RMK AO2 SLP065 T02500106 10250 20178
 53010=
KMRY 051754Z 31005KT 4SM BR BKN009 OVC011 15/11 A2988 RMK AO2 SLP129 T01500111
 53008=
KMYF 051753Z 21009KT 10SM BKN028 OVC037 21/13 A2987 RMK AO2 SLP111 60000
 T02060128 10211 20161 51002=
KMYF 051825Z 20010KT 10SM FEW026 OVC035 21/13 A2988 RMK AO2 T02060128=
KMYV 051753Z AUTO 16019G23KT 10SM CLR 23/11 A2968 RMK AO2 SLP054 T02280106
 10228 20167 51005=
KNFG 051755Z 20005KT 10SM BR SCT015 BKN022 OVC035 20/13 A2986 RMK AO2 SLP112
 60001 T02000133 10206 20172 50004 $=
KNID 051756Z 24013KT 10SM FEW160 BKN200 BKN250 31/07 A2971 RMK AO2 SLP034
 T03110067 10317 20239 55003 $=
KNJK 051756Z 28008G14KT 10SM FEW250 33/04 A2962 RMK AO2 SLP046 T03280044 10333
 20278 $=
KNJK 051756Z COR 28008G14KT 10SM FEW250 33/04 A2962 RMK AO2 SLP046 T03280044
 10333 20278 58004 $=
KNKX 051755Z 10SM BKN029 OVC036 21/13 A2987 RMK AO2 SLP108 60001 T02110133
 10222 20167 53003=
KNKX 051755Z COR 21006KT 10SM BKN029 OVC036 21/13 A2987 RMK AO2 SLP108 60001
 T02110133 10222 20167 53003=
KNKX 051829Z 22009KT 10SM BKN029 OVC036 21/13 A2987 RMK AO2 T02110133=
KNLC 051756Z VRB06KT 10SM FEW080 SCT130 BKN180 OVC230 27/10 A2973 RMK AO2
 SLP067 RH/33 T02720100 10278 20178 51011=
KNRS 051756Z 19011KT 10SM FEW028 OVC042 19/13 A2988 RMK AO2 SLP116 T01890133
 51006 $=
KNSI 051753Z 16006KT 10SM FEW022 OVC030 18/14 A2985 RMK AO2 SLP102 T01780139
 10178 20161 53004 $=
KNSI 051824Z 14008KT 10SM SCT008 OVC033 18/14 A2986 RMK AO2 T01830144 $=
KNSI 051844Z 16008KT 10SM BKN008 OVC037 18/14 A2986 RMK AO2 CIG 007V013
 T01830144 $=
KNTD 051752Z 17008KT 10SM SCT031 OVC041 19/14 A2985 RMK AO2 SLP110 60000
 T01940144 10200 20167 51004 $=
KNUC 051756Z 19009KT 10SM FEW029 OVC038 19/14 A2987 RMK AO2 SLP112 T01940139
 10200 20178 51008 $=
KNXP 051756Z AUTO 12010KT 10SM CLR 34/05 A2974 RMK AO2 SLP027 T03440050 10344
 20239 58010=
KNZY 051752Z 20007KT 10SM BKN032 OVC042 20/14 A2987 RMK AO2 SLP114 T02000144
 10200 20178 53006=
KO54 051755Z AUTO 22007KT 10SM CLR 22/02 A2972 RMK AO1=
KO54 051815Z AUTO 23009KT 180V280 10SM CLR 23/00 A2973 RMK AO1=
KO54 051835Z AUTO 25011G16KT 200V280 10SM CLR 23/M03 A2973 RMK AO1=
KOAK 051753Z 24015KT 10SM OVC014 16/11 A2984 RMK AO2 SLP105 T01560106 10161
 20150 53014=
KONT 051753Z 26007KT 10SM SCT013 BKN023 OVC028 18/14 A2987 RMK AO2 SLP107 60000
 T01830144 10183 20167 53010 $=
KONT 051815Z 25008KT 10SM BKN012 BKN021 OVC028 18/14 A2987 RMK AO2 T01830144 $=
KOVE 051753Z AUTO 17021G27KT 10SM CLR 25/09 A2968 RMK AO2 PK WND 17027/1716
 SLP050 T02500094 10250 20194 51011=
KOXR 051751Z 15007KT 10SM FEW020 OVC039 19/14 A2985 RMK AO2 SLP106 T01940139
 10194 20167 53004=
KPAO 051847Z 26009G18KT 10SM FEW020 21/09 A2983=
KPMD 051753Z 23008KT 10SM FEW110 19/09 A2978 RMK AO2 PK WND 22027/1729 SLP058
 T01940094 10206 20178 50001=
KPOC 051747Z 00000KT 7SM SCT007 OVC014 16/15 A2989=
KPRB 051753Z AUTO 22010KT 10SM OVC021 18/13 A2984 RMK AO2 SLP100 T01830128
 10183 20133 53001=
KPSP 051753Z 31024G37KT 10SM CLR 32/13 A2964 RMK AO2 SLP032 T03170128 10322
 20250 58001=
KPTV 051756Z AUTO 20007KT 10SM CLR 22/13 A2977 RMK AO2 SLP077 T02170128 10228
 20183 51014=
KRAL 051753Z 29007KT 5SM BR BKN008 OVC014 16/14 A2987 RMK AO2 RAB30E42 CIG
 005V011 SLP103 P0000 60000 T01610144 10172 20156 51011=
KRAL 051837Z 31005KT 10SM BKN013 OVC031 20/14 A2987 RMK AO2 T02000139=
KRBL 051754Z AUTO 17014G24KT 10SM CLR 25/11 A2965 RMK AO2 SLP038 T02500106
 10250 20217 53006=
KRDD 051753Z 21008G15KT 10SM CLR 27/12 A2962 RMK AO2 SLP024 T02670122 10272
 20178 51001=
KRHV 051847Z 32011G17KT 10SM FEW080 23/11 A2982=
KRIV 051758Z 31006KT 9SM BKN005 OVC010 16/15 A2987 RMK AO2A DZE44 SLP109 P0000
 60002 T01600147 10167 20155 52010=
KRIV 051803Z 30005KT 10SM -DZ BKN005 OVC010 16/15 A2988 RMK AO2A DZB03 SLP112=
KRIV 051819Z 33007KT 3SM -DZ BR BKN007 OVC012 16/15 A2988 RMK AO2A DZB03 CIG
 005V012 CIG 007 RWY14 SLP112=
KRIV 051838Z 32006KT 9SM BKN007 BKN011 OVC017 17/16 A2987 RMK DZB03E38 SLP109=
KRNM 051753Z VRB06KT 10SM BKN020 19/12 A2988 RMK AO2 SLP106 T01890122 10194
 20150 53003=
KSAC 051753Z 20009G18KT 180V240 10SM CLR 22/10 A2971 RMK AO2 SLP059 T02220100
 10222 20139 51005=
KSAN 051751Z 20008KT 10SM SCT023 OVC034 21/13 A2989 RMK AO2 SLP120 60000
 T02060133 10206 20183 53006=
KSBA 051753Z 10005KT 5SM BKN012 OVC026 18/15 A2985 RMK AO2 SLP108 60003
 T01830150 10183 20156 53006=
KSBD 051646Z 23005KT 3SM BR OVC010 17/14 A2987=
KSBP 051756Z 22007KT 10SM OVC020 18/13 A2985 RMK AO2 SLP108 T01830133 10183
 20156 53004=
KSCK 051755Z 27020G24KT 10SM CLR 27/09 A2972 RMK AO2 SLP063 T02670089 10267
 20178 51004=
KSDB 051753Z AUTO 19015G22KT 1/4SM -RA FG 12/11 A2991 RMK AO2 PK WND 19026/1737
 SLP089 P0000 60000 T01170106 10128 20106 52003 $=
KSDB 051801Z AUTO 19013G23KT 1/2SM FG 12/11 A2992 RMK AO2 RAE1756 P0000
 T01220106 $=
KSDB 051808Z AUTO 20013G19KT 1 1/2SM BR 13/11 A2992=
KSDB 051808Z AUTO 20013G19KT 1 1/2SM BR 13/11 A2992 RMK AO2 RAE1756 P0000
 T01280106 $=
KSDB 051810Z AUTO 19011KT 4SM BR 13/11 A2992 RMK AO2 RAE1756 P0000 T01280106 $=
KSDM 051753Z VRB03KT 10SM FEW027 OVC037 21/12 A2987 RMK AO2 SLP111 T02060122
 10206 20161 51004=
KSEE 051847Z 23006KT 10SM FEW020 OVC035 21/12 A2987=
KSFO 051756Z 24017G24KT 10SM FEW009 OVC013 14/09 A2985 RMK AO2 SLP108 T01440094
 10156 20128 53015=
KSIY 051753Z AUTO 00000KT 10SM CLR 24/00 A2970 RMK AO2 SLP043 T02390000 10244
 20106 58014=
KSJC 051753Z 21007KT 180V240 10SM FEW014 FEW065 22/10 A2981 RMK AO2 SLP093
 T02220100 10228 20156 53006=
KSLI 051758Z 00000KT 10SM BKN025 OVC035 21/15 A2986 RMK AO2A SLP115 WND DATA
 ESTMD ALSTG/SLP ESTMD 60000 T02090147 10209 20182 52007=
KSMF 051753Z 19019KT 10SM FEW250 22/10 A2968 RMK AO2 PK WND 18026/1734 SLP049
 T02220100 10222 20144 51006=
KSMO 051751Z 21007KT 10SM OVC028 19/13 A2986 RMK AO2 SLP110 T01940128 10194
 20178 51006=
KSMX 051751Z 00000KT 10SM SCT008 OVC018 18/15 A2985 RMK AO2 SLP110 60007
 T01830150 10183 20156 53006=
KSMX 051842Z 30009KT 7SM BKN014 OVC020 18/15 A2986 RMK AO2 T01780150=
KSNA 051753Z VRB05KT 10SM SCT023 OVC035 21/14 A2986 RMK AO2 SLP111 60001
 T02110139 10211 20178 53005=
KSNS 051753Z 30005KT 8SM OVC010 16/12 A2987 RMK AO2 SLP123 60000 T01560122
 10156 20139 51010=
KSQL 051747Z 26014KT 10SM FEW020 17/10 A2985=
KSTS 051753Z 17005KT 8SM CLR 20/11 A2975 RMK AO2 SLP068 T02000106 10200 20089
 51002=
KSUU 051758Z AUTO 24025G30KT 10SM CLR 21/09 A2970 RMK AO2 PK WND 24033/33
 SLP064 T02050091 10205 20130 50004 $=
KSVE 051755Z AUTO 05007KT 10SM CLR 27/01 A2975 RMK AO2=
KSVE 051815Z AUTO 02005KT 10SM CLR 28/01 A2974 RMK AO2=
KSVE 051835Z AUTO 03006KT 10SM CLR 28/00 A2974 RMK AO2=
KTOA 051747Z 12007KT 10SM SCT026 OVC035 21/14 A2986=
KTRK 051800Z 21012G23KT 10SM SKC 24/00 A2992=
KTRM 051752Z AUTO 34012KT 7SM CLR 33/13 A2959 RMK AO2 SLP024 T03330128 10333
 20256 58002=
KTVL 051753Z AUTO 20011G16KT 10SM CLR 23/M01 A2993 RMK AO2 SLP070 T02281006
 10233 20039 56006=
KUKI 051756Z AUTO 36012G17KT 10SM CLR 23/07 A2974 RMK AO2 SLP062 T02280067
 10228 20133 58001=
KVBG 051758Z 29006KT 10SM OVC023 17/14 A2986 RMK AO2A SLP113 60001 T01700137
 10178 20145 53006=
KVCV 051746Z 18015KT 10SM SCT060 SCT100 A2979=
KVIS 051756Z AUTO 14005KT 10SM CLR 23/13 A2976 RMK AO2 SLP081 T02330128 10233
 20172 51019=
KVNY 051751Z VRB04KT 10SM OVC023 19/13 A2986 RMK AO2 SLP104 T01890128 10189
 20167 50006=
KWJF 051756Z 27027G34KT 8SM FEW070 FEW100 SCT120 18/11 A2972 RMK AO2 PK WND
 27034/1756 PRESFR SLP050 T01830111 10206 20172 58014=
KWVI 051753Z AUTO 20006KT 9SM OVC015 16/13 A2987 RMK AO2 SLP114 T01560133 10156
 20139 53009=
KWVI 051806Z AUTO 21007KT 9SM OVC013 16/13 A2987 RMK AO2 T01560133=